createdAt,value
2022-10-13T00:01:24.744Z,100727.91
2022-10-13T00:03:53.328Z,100726.03
2022-10-13T00:06:25.351Z,100731.13
2022-10-13T00:08:54.590Z,100733.47
2022-10-13T00:11:25.123Z,100732.69
2022-10-13T00:13:56.888Z,100738.34
2022-10-13T00:16:25.979Z,100736.78
2022-10-13T00:18:54.284Z,100727.22
2022-10-13T00:21:25.011Z,100738.34
2022-10-13T00:23:54.444Z,100737.38
2022-10-13T00:26:24.695Z,100739.13
2022-10-13T00:28:53.381Z,100734.59
2022-10-13T00:31:25.133Z,100738.44
2022-10-13T00:33:54.242Z,100734.94
2022-10-13T00:36:23.538Z,100732.59
2022-10-13T00:38:53.009Z,100741.19
2022-10-13T00:41:21.991Z,100733.38
2022-10-13T00:44:00.319Z,100740.31
2022-10-13T00:46:32.080Z,100746.41
2022-10-13T00:49:05.433Z,100743.69
2022-10-13T00:51:38.313Z,100747.59
2022-10-13T00:54:07.697Z,100752.66
2022-10-13T00:56:40.329Z,100748.81
2022-10-13T00:59:27.416Z,100759.22
2022-10-13T01:01:58.842Z,100749.91
2022-10-13T01:04:32.473Z,100754.97
2022-10-13T01:07:02.278Z,100755.84
2022-10-13T01:09:38.159Z,100754.03
2022-10-13T01:12:18.731Z,100764.34
2022-10-13T01:15:05.899Z,100761.63
2022-10-13T01:17:55.230Z,100766.97
2022-10-13T01:20:48.160Z,100760.06
2022-10-13T01:23:30.580Z,100761.88
2022-10-13T01:26:25.622Z,100761.75
2022-10-13T01:29:21.274Z,100766.72
2022-10-13T01:32:00.264Z,100764.53
2022-10-13T01:34:37.879Z,100765.13
2022-10-13T01:37:22.941Z,100763.47
2022-10-13T01:39:57.620Z,100762.63
2022-10-13T01:42:35.467Z,100771.56
2022-10-13T01:45:04.861Z,100766.47
2022-10-13T01:47:35.766Z,100763.50
2022-10-13T01:50:07.154Z,100767.88
2022-10-13T01:52:42.196Z,100771.28
2022-10-13T01:55:12.728Z,100770.59
2022-10-13T01:57:43.489Z,100767.34
2022-10-13T02:00:16.661Z,100774.22
2022-10-13T02:03:04.231Z,100764.84
2022-10-13T02:05:52.434Z,100765.03
2022-10-13T02:08:46.630Z,100775.38
2022-10-13T02:11:25.822Z,100771.03
2022-10-13T02:14:15.560Z,100764.38
2022-10-13T02:17:05.605Z,100775.50
2022-10-13T02:19:38.126Z,100770.25
2022-10-13T02:22:08.617Z,100779.56
2022-10-13T02:24:37.298Z,100778.09
2022-10-13T02:27:07.154Z,100783.44
2022-10-13T02:29:35.156Z,100782.59
2022-10-13T02:32:06.483Z,100772.97
2022-10-13T02:34:34.399Z,100783.16
2022-10-13T02:37:02.300Z,100784.78
2022-10-13T02:39:30.557Z,100782.75
2022-10-13T02:41:58.809Z,100783.84
2022-10-13T02:44:26.725Z,100786.22
2022-10-13T02:46:55.019Z,100781.97
2022-10-13T02:49:22.915Z,100790.38
2022-10-13T02:51:50.965Z,100791.38
2022-10-13T02:54:19.332Z,100790.47
2022-10-13T02:56:47.136Z,100792.94
2022-10-13T02:59:18.230Z,100801.44
2022-10-13T03:01:46.811Z,100791.97
2022-10-13T03:04:14.740Z,100800.25
2022-10-13T03:06:45.888Z,100798.63
2022-10-13T03:09:17.190Z,100792.87
2022-10-13T03:11:45.148Z,100794.66
2022-10-13T03:14:13.491Z,100799.66
2022-10-13T03:16:41.787Z,100799.41
2022-10-13T03:19:11.506Z,100792.22
2022-10-13T03:21:39.967Z,100791.25
2022-10-13T03:24:08.529Z,100798.97
2022-10-13T03:26:36.359Z,100790.22
2022-10-13T03:29:04.256Z,100794.69
2022-10-13T03:31:35.767Z,100797.84
2022-10-13T03:34:03.556Z,100793.72
2022-10-13T03:36:31.500Z,100799.59
2022-10-13T03:38:59.763Z,100799.13
2022-10-13T03:41:27.673Z,100785.81
2022-10-13T03:43:55.845Z,100800.88
2022-10-13T03:46:27.063Z,100799.94
2022-10-13T03:48:56.973Z,100797.06
2022-10-13T03:51:25.739Z,100813.09
2022-10-13T03:53:57.127Z,100813.94
2022-10-13T03:56:27.476Z,100821.41
2022-10-13T03:59:00.524Z,100818.12
2022-10-13T04:01:30.781Z,100813.94
2022-10-13T04:04:02.425Z,100825.12
2022-10-13T04:06:31.323Z,100832.81
2022-10-13T04:08:59.814Z,100831.16
2022-10-13T04:11:27.737Z,100823.69
2022-10-13T04:14:00.036Z,100830.34
2022-10-13T04:16:30.890Z,100820.22
2022-10-13T04:19:05.579Z,100831.59
2022-10-13T04:21:35.462Z,100839.34
2022-10-13T04:24:05.305Z,100837.97
2022-10-13T04:26:36.977Z,100846.22
2022-10-13T04:29:10.114Z,100844.34
2022-10-13T04:31:40.131Z,100843.63
2022-10-13T04:34:08.771Z,100846.41
2022-10-13T04:36:36.868Z,100852.97
2022-10-13T04:39:05.349Z,100855.00
2022-10-13T04:41:34.028Z,100853.81
2022-10-13T04:44:02.824Z,100855.47
2022-10-13T04:46:34.166Z,100866.44
2022-10-13T04:49:02.012Z,100857.75
2022-10-13T04:51:32.372Z,100868.16
2022-10-13T04:54:03.723Z,100860.22
2022-10-13T04:56:34.786Z,100860.50
2022-10-13T04:59:09.331Z,100855.31
2022-10-13T05:01:38.018Z,100860.66
2022-10-13T05:04:10.079Z,100852.25
2022-10-13T05:07:05.402Z,100871.97
2022-10-13T05:09:30.531Z,100870.63
2022-10-13T05:11:58.536Z,100871.03
2022-10-13T05:14:26.479Z,100875.97
2022-10-13T05:16:54.659Z,100883.84
2022-10-13T05:19:22.603Z,100885.03
2022-10-13T05:21:50.513Z,100893.78
2022-10-13T05:24:21.071Z,100890.16
2022-10-13T05:26:50.297Z,100884.69
2022-10-13T05:29:18.650Z,100886.41
2022-10-13T05:31:46.576Z,100890.97
2022-10-13T05:34:15.017Z,100886.06
2022-10-13T05:36:43.334Z,100882.88
2022-10-13T05:39:11.278Z,100895.72
2022-10-13T05:41:42.461Z,100887.19
2022-10-13T05:44:16.952Z,100892.81
2022-10-13T05:46:47.246Z,100896.00
2022-10-13T05:49:16.257Z,100897.06
2022-10-13T05:51:47.563Z,100894.37
2022-10-13T05:54:21.761Z,100896.00
2022-10-13T05:57:11.942Z,100902.28
2022-10-13T05:59:45.433Z,100904.56
2022-10-13T06:02:14.958Z,100900.28
2022-10-13T06:04:47.949Z,100903.31
2022-10-13T06:07:15.927Z,100903.62
2022-10-13T06:09:44.174Z,100900.72
2022-10-13T06:12:11.988Z,100897.69
2022-10-13T06:14:40.011Z,100903.59
2022-10-13T06:17:10.847Z,100894.19
2022-10-13T06:19:45.661Z,100910.75
2022-10-13T06:22:14.067Z,100909.28
2022-10-13T06:24:42.115Z,100910.41
2022-10-13T06:29:58.255Z,100925.34
2022-10-13T06:32:26.039Z,100926.81
2022-10-13T06:34:53.817Z,100916.13
2022-10-13T06:37:26.314Z,100901.28
2022-10-13T06:39:55.577Z,100910.34
2022-10-13T06:42:23.828Z,100910.34
2022-10-13T06:44:54.203Z,100903.09
2022-10-13T06:47:25.242Z,100917.47
2022-10-13T06:49:54.081Z,100911.50
2022-10-13T06:52:22.358Z,100911.16
2022-10-13T06:54:50.423Z,100914.72
2022-10-13T06:57:18.670Z,100915.31
2022-10-13T06:59:46.556Z,100911.94
2022-10-13T07:02:14.387Z,100912.56
2022-10-13T07:04:42.651Z,100897.25
2022-10-13T07:07:10.882Z,100913.94
2022-10-13T07:09:38.795Z,100920.72
2022-10-13T07:12:10.241Z,100918.84
2022-10-13T07:14:39.289Z,100910.34
2022-10-13T07:17:13.068Z,100914.13
2022-10-13T07:19:41.002Z,100907.66
2022-10-13T07:22:08.870Z,100906.78
2022-10-13T07:24:40.084Z,100903.47
2022-10-13T07:27:08.096Z,100908.91
2022-10-13T07:29:36.194Z,100907.59
2022-10-13T07:32:04.556Z,100916.78
2022-10-13T07:34:35.629Z,100909.19
2022-10-13T07:37:03.489Z,100894.03
2022-10-13T07:39:33.007Z,100900.75
2022-10-13T07:42:00.820Z,100920.75
2022-10-13T07:44:28.891Z,100913.97
2022-10-13T07:46:57.014Z,100917.91
2022-10-13T07:49:24.743Z,100918.09
2022-10-13T07:51:55.074Z,100906.66
2022-10-13T07:54:26.528Z,100918.03
2022-10-13T07:56:56.626Z,100921.84
2022-10-13T07:59:25.085Z,100912.84
2022-10-13T08:01:52.812Z,100924.06
2022-10-13T08:04:21.009Z,100927.47
2022-10-13T08:06:48.890Z,100927.72
2022-10-13T08:09:16.954Z,100923.44
2022-10-13T08:11:48.403Z,100932.06
2022-10-13T08:14:20.223Z,100925.34
2022-10-13T08:16:51.401Z,100940.50
2022-10-13T08:19:22.419Z,100931.16
2022-10-13T08:21:59.694Z,100928.16
2022-10-13T08:24:31.003Z,100925.25
2022-10-13T08:27:02.355Z,100920.31
2022-10-13T08:29:30.352Z,100925.37
2022-10-13T08:31:58.200Z,100930.81
2022-10-13T08:34:26.542Z,100934.53
2022-10-13T08:36:56.751Z,100920.12
2022-10-13T08:39:27.542Z,100926.62
2022-10-13T08:41:59.213Z,100932.53
2022-10-13T08:45:10.947Z,100930.56
2022-10-13T08:47:37.112Z,100927.53
2022-10-13T08:50:18.103Z,100923.31
2022-10-13T08:52:54.914Z,100915.06
2022-10-13T08:55:31.838Z,100924.41
2022-10-13T08:58:01.131Z,100919.91
2022-10-13T09:00:30.456Z,100925.31
2022-10-13T09:03:30.757Z,100928.87
2022-10-13T09:06:15.778Z,100912.81
2022-10-13T09:08:51.757Z,100904.38
2022-10-13T09:11:20.711Z,100915.25
2022-10-13T09:13:49.191Z,100919.41
2022-10-13T09:16:38.651Z,100924.06
2022-10-13T09:19:22.898Z,100912.91
2022-10-13T09:21:53.223Z,100915.50
2022-10-13T09:24:23.784Z,100915.88
2022-10-13T09:27:05.315Z,100922.66
2022-10-13T09:29:38.690Z,100918.25
2022-10-13T09:32:16.592Z,100916.22
2022-10-13T09:34:45.248Z,100911.56
2022-10-13T09:37:22.663Z,100915.72
2022-10-13T09:40:12.619Z,100917.12
2022-10-13T09:42:40.948Z,100912.34
2022-10-13T09:45:17.033Z,100906.72
2022-10-13T09:48:03.657Z,100903.62
2022-10-13T09:50:33.737Z,100910.34
2022-10-13T09:53:20.216Z,100902.25
2022-10-13T09:55:49.931Z,100913.75
2022-10-13T09:58:31.468Z,100905.41
2022-10-13T10:01:02.434Z,100889.88
2022-10-13T10:03:39.408Z,100887.22
2022-10-13T10:06:17.334Z,100895.19
2022-10-13T10:09:04.892Z,100885.88
2022-10-13T10:11:42.168Z,100898.72
2022-10-13T10:14:17.573Z,100892.62
2022-10-13T10:16:50.977Z,100890.87
2022-10-13T10:19:30.936Z,100899.50
2022-10-13T10:22:09.924Z,100909.84
2022-10-13T10:25:06.345Z,100905.03
2022-10-13T10:27:53.008Z,100894.59
2022-10-13T10:30:22.350Z,100902.72
2022-10-13T10:33:14.063Z,100901.53
2022-10-13T10:35:55.469Z,100902.13
2022-10-13T10:38:44.495Z,100900.25
2022-10-13T10:41:37.459Z,100900.97
2022-10-13T10:44:11.376Z,100903.16
2022-10-13T10:46:52.339Z,100909.00
2022-10-13T10:49:29.052Z,100905.31
2022-10-13T10:52:03.253Z,100908.09
2022-10-13T10:54:54.294Z,100901.37
2022-10-13T10:57:34.102Z,100910.72
2022-10-13T11:00:19.193Z,100912.81
2022-10-13T11:03:02.712Z,100898.53
2022-10-13T11:05:49.242Z,100901.63
2022-10-13T11:08:40.693Z,100898.69
2022-10-13T11:11:33.425Z,100894.87
2022-10-13T11:14:09.359Z,100897.69
2022-10-13T11:17:06.263Z,100907.72
2022-10-13T11:19:36.956Z,100907.75
2022-10-13T11:22:04.746Z,100904.25
2022-10-13T11:24:34.192Z,100908.81
2022-10-13T11:27:08.664Z,100909.69
2022-10-13T11:29:52.567Z,100909.09
2022-10-13T11:32:27.291Z,100904.53
2022-10-13T11:35:07.207Z,100906.09
2022-10-13T11:38:07.589Z,100904.63
2022-10-13T11:40:57.556Z,100902.09
2022-10-13T11:43:54.319Z,100904.72
2022-10-13T11:47:00.531Z,100902.75
2022-10-13T11:50:08.206Z,100895.22
2022-10-13T11:53:09.045Z,100902.31
2022-10-13T11:55:51.123Z,100900.75
2022-10-13T11:58:27.162Z,100903.44
2022-10-13T12:01:04.727Z,100902.28
2022-10-13T12:03:40.435Z,100893.00
2022-10-13T12:06:22.250Z,100897.59
2022-10-13T12:08:52.370Z,100898.22
2022-10-13T12:11:28.894Z,100895.75
2022-10-13T12:13:57.931Z,100891.47
2022-10-13T12:16:30.280Z,100891.63
2022-10-13T12:19:10.550Z,100901.09
2022-10-13T12:21:51.434Z,100886.88
2022-10-13T12:24:23.972Z,100884.25
2022-10-13T12:26:52.817Z,100890.19
2022-10-13T12:29:25.628Z,100894.00
2022-10-13T12:31:54.611Z,100891.03
2022-10-13T12:34:36.688Z,100891.72
2022-10-13T12:37:34.027Z,100897.19
2022-10-13T12:40:05.166Z,100885.50
2022-10-13T12:42:36.331Z,100890.31
2022-10-13T12:45:05.508Z,100891.84
2022-10-13T12:47:47.615Z,100886.69
2022-10-13T12:50:30.921Z,100896.31
2022-10-13T12:53:12.861Z,100902.44
2022-10-13T12:55:59.453Z,100897.63
2022-10-13T12:58:33.447Z,100899.16
2022-10-13T13:01:29.042Z,100901.91
2022-10-13T13:04:02.683Z,100891.47
2022-10-13T13:06:33.855Z,100904.53
2022-10-13T13:09:25.335Z,100903.19
2022-10-13T13:12:13.103Z,100911.34
2022-10-13T13:14:45.599Z,100906.56
2022-10-13T13:17:38.454Z,100914.25
2022-10-13T13:20:27.197Z,100912.00
2022-10-13T13:22:56.209Z,100899.88
2022-10-13T13:25:24.451Z,100898.88
2022-10-13T13:27:52.474Z,100906.75
2022-10-13T13:30:23.524Z,100900.38
2022-10-13T13:32:51.601Z,100914.31
2022-10-13T13:35:19.559Z,100915.09
2022-10-13T13:37:50.862Z,100925.66
2022-10-13T13:40:26.808Z,100920.06
2022-10-13T13:42:58.347Z,100920.09
2022-10-13T13:45:26.745Z,100919.22
2022-10-13T13:48:00.396Z,100918.94
2022-10-13T13:50:35.342Z,100913.03
2022-10-13T13:53:04.665Z,100907.87
2022-10-13T13:55:32.776Z,100916.47
2022-10-13T13:58:01.096Z,100912.09
2022-10-13T14:00:29.363Z,100918.37
2022-10-13T14:02:58.174Z,100925.56
2022-10-13T14:05:26.013Z,100924.38
2022-10-13T14:07:55.485Z,100930.12
2022-10-13T14:10:24.595Z,100921.63
2022-10-13T14:12:52.934Z,100935.22
2022-10-13T14:15:22.480Z,100938.25
2022-10-13T14:17:54.140Z,100931.87
2022-10-13T14:20:22.454Z,100944.41
2022-10-13T14:22:50.278Z,100945.37
2022-10-13T14:25:18.644Z,100955.97
2022-10-13T14:27:46.500Z,100950.38
2022-10-13T14:30:15.028Z,100956.34
2022-10-13T14:32:43.418Z,100965.97
2022-10-13T14:35:11.149Z,100954.47
2022-10-13T14:37:39.242Z,100953.44
2022-10-13T14:40:08.162Z,100958.06
2022-10-13T14:42:35.966Z,100964.75
2022-10-13T14:45:06.847Z,100961.28
2022-10-13T14:47:35.293Z,100977.16
2022-10-13T14:50:03.356Z,100965.87
2022-10-13T14:52:31.301Z,100977.62
2022-10-13T14:54:59.465Z,100977.13
2022-10-13T14:57:27.429Z,100974.94
2022-10-13T14:59:59.377Z,100975.91
2022-10-13T15:02:31.861Z,100976.97
2022-10-13T15:05:00.362Z,100965.63
2022-10-13T15:07:31.030Z,100989.66
2022-10-13T15:10:06.740Z,100987.44
2022-10-13T15:12:35.339Z,100990.50
2022-10-13T15:15:04.126Z,100995.75
2022-10-13T15:17:33.493Z,100986.44
2022-10-13T15:20:01.436Z,100995.94
2022-10-13T15:22:31.157Z,100983.13
2022-10-13T15:24:59.160Z,100997.91
2022-10-13T15:27:30.231Z,100999.66
2022-10-13T15:29:58.378Z,101001.00
2022-10-13T15:32:26.274Z,101008.78
2022-10-13T15:34:56.177Z,101003.16
2022-10-13T15:37:25.837Z,101011.41
2022-10-13T15:39:57.344Z,100988.69
2022-10-13T15:42:26.524Z,101007.69
2022-10-13T15:45:09.267Z,101006.31
2022-10-13T15:47:39.084Z,101013.59
2022-10-13T15:50:07.785Z,101013.53
2022-10-13T15:52:40.471Z,101014.03
2022-10-13T15:55:11.306Z,101019.25
2022-10-13T15:57:39.760Z,101018.50
2022-10-13T16:00:09.030Z,101027.53
2022-10-13T16:02:41.047Z,101024.25
2022-10-13T16:05:11.962Z,101028.03
2022-10-13T16:07:40.975Z,101026.25
2022-10-13T16:10:12.658Z,101030.97
2022-10-13T16:12:45.500Z,101041.00
2022-10-13T16:15:18.392Z,101034.19
2022-10-13T16:17:52.358Z,101048.88
2022-10-13T16:20:23.414Z,101048.38
2022-10-13T16:22:51.309Z,101041.34
2022-10-13T16:25:19.192Z,101041.41
2022-10-13T16:27:47.594Z,101046.56
2022-10-13T16:30:15.535Z,101040.44
2022-10-13T16:32:43.608Z,101039.91
2022-10-13T16:35:12.157Z,101041.13
2022-10-13T16:37:40.267Z,101035.69
2022-10-13T16:40:08.702Z,101041.22
2022-10-13T16:42:38.010Z,101043.63
2022-10-13T16:45:06.626Z,101038.28
2022-10-13T16:47:34.622Z,101044.22
2022-10-13T16:50:06.966Z,101038.94
2022-10-13T16:52:34.860Z,101051.16
2022-10-13T16:55:04.560Z,101052.22
2022-10-13T16:57:32.991Z,101045.53
2022-10-13T17:00:00.943Z,101043.31
2022-10-13T17:02:31.697Z,101056.38
2022-10-13T17:04:59.519Z,101043.25
2022-10-13T17:07:27.467Z,101045.34
2022-10-13T17:09:55.888Z,101058.03
2022-10-13T17:12:23.759Z,101062.06
2022-10-13T17:14:54.478Z,101053.53
2022-10-13T17:17:23.070Z,101056.41
2022-10-13T17:19:50.918Z,101059.03
2022-10-13T17:22:21.583Z,101065.06
2022-10-13T17:24:50.132Z,101058.91
2022-10-13T17:27:18.440Z,101063.28
2022-10-13T17:29:46.802Z,101059.72
2022-10-13T17:32:15.128Z,101057.91
2022-10-13T17:34:42.930Z,101070.34
2022-10-13T17:37:12.328Z,101064.53
2022-10-13T17:39:40.571Z,101058.81
2022-10-13T17:42:08.352Z,101074.03
2022-10-13T17:44:36.695Z,101068.03
2022-10-13T17:49:51.107Z,101077.47
2022-10-13T17:52:21.169Z,101074.16
2022-10-13T18:00:20.919Z,101072.19
2022-10-13T18:02:50.391Z,101068.63
2022-10-13T18:05:19.051Z,101073.00
2022-10-13T18:07:47.032Z,101071.59
2022-10-13T18:10:15.603Z,101069.41
2022-10-13T18:12:44.539Z,101081.81
2022-10-13T18:15:12.357Z,101072.03
2022-10-13T18:17:40.587Z,101073.94
2022-10-13T18:20:08.781Z,101071.59
2022-10-13T18:22:36.983Z,101075.62
2022-10-13T18:25:06.964Z,101070.84
2022-10-13T18:27:35.063Z,101070.34
2022-10-13T18:30:02.930Z,101066.84
2022-10-13T18:32:34.807Z,101072.94
2022-10-13T18:35:02.668Z,101082.47
2022-10-13T18:37:30.722Z,101083.75
2022-10-13T18:39:58.833Z,101077.78
2022-10-13T18:42:27.992Z,101078.00
2022-10-13T18:44:58.719Z,101082.69
2022-10-13T18:47:27.023Z,101079.56
2022-10-13T18:49:54.847Z,101078.47
2022-10-13T18:52:22.622Z,101084.72
2022-10-13T18:54:51.143Z,101085.75
2022-10-13T18:57:19.098Z,101086.91
2022-10-13T18:59:48.044Z,101082.38
2022-10-13T19:02:16.923Z,101080.50
2022-10-13T19:04:44.761Z,101077.19
2022-10-13T19:07:12.725Z,101087.03
2022-10-13T19:09:40.810Z,101071.81
2022-10-13T19:12:08.886Z,101079.28
2022-10-13T19:14:36.640Z,101084.47
2022-10-13T19:17:04.795Z,101084.66
2022-10-13T19:19:34.590Z,101088.16
2022-10-13T19:22:02.521Z,101070.06
2022-10-13T19:24:31.115Z,101077.16
2022-10-13T19:26:59.085Z,101073.53
2022-10-13T19:29:26.997Z,101082.88
2022-10-13T19:31:55.228Z,101086.88
2022-10-13T19:34:23.390Z,101083.19
2022-10-13T19:36:58.604Z,101077.87
2022-10-13T19:39:27.737Z,101077.37
2022-10-13T19:41:57.911Z,101086.34
2022-10-13T19:44:29.370Z,101088.25
2022-10-13T19:47:00.500Z,101081.72
2022-10-13T19:49:29.457Z,101083.38
2022-10-13T19:51:57.301Z,101083.34
2022-10-13T19:54:32.903Z,101092.31
2022-10-13T19:57:02.716Z,101075.62
2022-10-13T19:59:30.769Z,101101.03
2022-10-13T20:01:58.509Z,101093.41
2022-10-13T20:04:26.796Z,101095.91
2022-10-13T20:06:54.750Z,101092.22
2022-10-13T20:09:23.139Z,101097.41
2022-10-13T20:11:52.374Z,101105.47
2022-10-13T20:14:20.445Z,101099.72
2022-10-13T20:16:51.794Z,101098.13
2022-10-13T20:19:20.592Z,101100.78
2022-10-13T20:21:51.898Z,101108.47
2022-10-13T20:24:24.211Z,101110.12
2022-10-13T20:26:53.771Z,101104.97
2022-10-13T20:29:23.076Z,101110.97
2022-10-13T20:31:51.142Z,101097.09
2022-10-13T20:34:19.164Z,101096.09
2022-10-13T20:36:51.512Z,101106.28
2022-10-13T20:39:19.781Z,101109.56
2022-10-13T20:41:48.235Z,101091.50
2022-10-13T20:44:16.149Z,101115.31
2022-10-13T20:46:44.017Z,101113.50
2022-10-13T20:49:13.268Z,101106.50
2022-10-13T20:51:43.115Z,101106.38
2022-10-13T20:54:12.967Z,101112.28
2022-10-13T20:56:41.807Z,101112.13
2022-10-13T20:59:12.327Z,101106.03
2022-10-13T21:01:40.789Z,101106.78
2022-10-13T21:04:09.234Z,101104.97
2022-10-13T21:06:41.745Z,101109.16
2022-10-13T21:09:10.858Z,101114.22
2022-10-13T21:11:40.049Z,101108.94
2022-10-13T21:14:11.091Z,101115.69
2022-10-13T21:16:39.668Z,101109.59
2022-10-13T21:19:09.924Z,101092.47
2022-10-13T21:21:38.401Z,101115.37
2022-10-13T21:24:08.476Z,101116.19
2022-10-13T21:26:40.726Z,101116.91
2022-10-13T21:29:15.066Z,101117.75
2022-10-13T21:31:43.064Z,101115.97
2022-10-13T21:34:12.762Z,101109.03
2022-10-13T21:36:44.610Z,101108.09
2022-10-13T21:39:14.999Z,101110.56
2022-10-13T21:41:42.739Z,101113.12
2022-10-13T21:44:13.297Z,101106.19
2022-10-13T21:46:41.804Z,101109.59
2022-10-13T21:49:10.389Z,101106.94
2022-10-13T21:51:40.153Z,101114.66
2022-10-13T21:54:11.454Z,101110.22
2022-10-13T21:56:40.532Z,101109.41
2022-10-13T21:59:10.488Z,101100.69
2022-10-13T22:01:41.957Z,101108.44
2022-10-13T22:04:15.022Z,101108.34
2022-10-13T22:06:43.566Z,101107.53
2022-10-13T22:09:12.069Z,101110.06
2022-10-13T22:11:41.295Z,101111.72
2022-10-13T22:14:11.693Z,101115.94
2022-10-13T22:16:42.928Z,101118.44
2022-10-13T22:19:11.363Z,101119.22
2022-10-13T22:21:42.374Z,101122.88
2022-10-13T22:24:16.381Z,101117.66
2022-10-13T22:26:45.516Z,101118.34
2022-10-13T22:29:15.879Z,101121.00
2022-10-13T22:31:44.223Z,101119.97
2022-10-13T22:34:13.319Z,101127.63
2022-10-13T22:36:44.828Z,101127.56
2022-10-13T22:39:15.187Z,101111.13
2022-10-13T22:41:43.141Z,101131.59
2022-10-13T22:44:13.826Z,101123.00
2022-10-13T22:46:42.190Z,101117.78
2022-10-13T22:49:14.066Z,101117.75
2022-10-13T22:51:42.248Z,101117.69
2022-10-13T22:54:10.854Z,101125.34
2022-10-13T22:56:40.518Z,101121.94
2022-10-13T22:59:09.164Z,101126.03
2022-10-13T23:01:37.355Z,101121.66
2022-10-13T23:04:05.861Z,101122.56
2022-10-13T23:06:37.120Z,101127.63
2022-10-13T23:09:11.546Z,101126.00
2022-10-13T23:11:40.455Z,101121.63
2022-10-13T23:14:11.656Z,101124.28
2022-10-13T23:16:42.655Z,101124.97
2022-10-13T23:19:13.720Z,101124.22
2022-10-13T23:21:41.512Z,101121.53
2022-10-13T23:24:11.337Z,101127.41
2022-10-13T23:26:41.995Z,101129.13
2022-10-13T23:29:10.597Z,101127.31
2022-10-13T23:31:38.524Z,101126.44
2022-10-13T23:34:06.734Z,101137.63
2022-10-13T23:36:34.804Z,101142.78
2022-10-13T23:39:07.139Z,101134.16
2022-10-13T23:41:35.480Z,101140.97
2022-10-13T23:44:03.381Z,101137.56
2022-10-13T23:46:31.316Z,101137.44
2022-10-13T23:49:02.642Z,101137.44
2022-10-13T23:51:31.214Z,101127.06
2022-10-13T23:54:00.040Z,101131.41
2022-10-13T23:56:28.081Z,101128.75
2022-10-13T23:58:56.172Z,101127.06
